createdAt,value
2022-12-25T00:00:30.570Z,13.50
2022-12-25T00:03:24.414Z,12.80
2022-12-25T00:06:00.818Z,17.50
2022-12-25T00:08:35.412Z,22.00
2022-12-25T00:11:13.144Z,16.50
2022-12-25T00:13:48.333Z,19.20
2022-12-25T00:16:25.573Z,22.00
2022-12-25T00:19:01.565Z,27.80
2022-12-25T00:21:35.302Z,22.00
2022-12-25T00:24:10.537Z,28.50
2022-12-25T00:26:44.320Z,16.60
2022-12-25T00:29:18.739Z,18.30
2022-12-25T00:31:52.679Z,19.50
2022-12-25T00:34:27.239Z,17.40
2022-12-25T00:37:01.069Z,21.60
2022-12-25T00:39:35.181Z,20.20
2022-12-25T00:42:23.902Z,18.60
2022-12-25T00:44:57.589Z,19.10
2022-12-25T00:47:32.519Z,19.80
2022-12-25T00:50:08.396Z,20.20
2022-12-25T00:52:42.502Z,20.60
2022-12-25T00:55:16.534Z,19.00
2022-12-25T00:57:50.591Z,22.20
2022-12-25T01:00:26.349Z,22.70
2022-12-25T01:03:00.654Z,24.50
2022-12-25T01:05:36.052Z,16.40
2022-12-25T01:08:11.081Z,15.00
2022-12-25T01:10:45.175Z,16.10
2022-12-25T01:13:19.237Z,15.60
2022-12-25T01:15:54.604Z,17.00
2022-12-25T01:18:29.524Z,16.30
2022-12-25T01:21:09.261Z,15.00
2022-12-25T01:23:43.679Z,15.00
2022-12-25T01:26:19.537Z,11.40
2022-12-25T01:28:54.691Z,14.50
2022-12-25T01:31:29.358Z,12.50
2022-12-25T01:34:03.534Z,11.40
2022-12-25T01:36:37.624Z,12.10
2022-12-25T01:39:11.942Z,10.00
2022-12-25T01:41:46.154Z,11.60
2022-12-25T01:45:10.866Z,15.20
2022-12-25T01:47:45.060Z,12.60
2022-12-25T01:50:20.444Z,15.70
2022-12-25T01:52:55.980Z,11.70
2022-12-25T01:55:31.645Z,11.50
2022-12-25T01:58:06.142Z,8.40
2022-12-25T02:00:39.997Z,8.20
2022-12-25T02:03:14.903Z,9.50
2022-12-25T02:05:51.768Z,8.40
2022-12-25T02:08:27.100Z,9.20
2022-12-25T02:11:01.821Z,11.10
2022-12-25T02:13:37.674Z,13.60
2022-12-25T02:16:22.367Z,13.80
2022-12-25T02:19:04.488Z,13.90
2022-12-25T02:22:07.662Z,19.40
2022-12-25T02:25:05.414Z,11.10
2022-12-25T02:28:11.149Z,10.00
2022-12-25T02:30:53.321Z,12.10
2022-12-25T02:33:54.657Z,9.90
2022-12-25T02:36:34.414Z,10.30
2022-12-25T02:39:34.089Z,11.50
2022-12-25T02:42:15.009Z,9.50
2022-12-25T02:45:10.353Z,12.40
2022-12-25T02:48:02.339Z,12.90
2022-12-25T02:50:54.633Z,11.70
2022-12-25T02:53:47.215Z,12.10
2022-12-25T02:56:47.184Z,9.60
2022-12-25T02:59:52.585Z,10.50
2022-12-25T03:02:47.535Z,11.70
2022-12-25T03:05:44.797Z,9.80
2022-12-25T03:08:27.093Z,9.60
2022-12-25T03:11:31.420Z,7.60
2022-12-25T03:14:27.292Z,10.20
2022-12-25T03:17:03.532Z,10.50
2022-12-25T03:19:56.473Z,11.70
2022-12-25T03:22:51.627Z,13.70
2022-12-25T03:25:43.594Z,9.60
2022-12-25T03:28:18.024Z,10.50
2022-12-25T03:31:13.624Z,11.30
2022-12-25T03:34:49.378Z,12.20
2022-12-25T03:38:13.333Z,10.90
2022-12-25T03:41:18.988Z,9.80
2022-12-25T03:44:37.174Z,9.30
2022-12-25T03:47:41.201Z,7.70
2022-12-25T03:50:43.152Z,9.30
2022-12-25T03:53:42.057Z,11.10
2022-12-25T03:56:35.551Z,10.50
2022-12-25T03:59:26.875Z,8.50
2022-12-25T04:02:18.785Z,9.30
2022-12-25T04:05:10.309Z,7.90
2022-12-25T04:08:01.742Z,8.80
2022-12-25T04:10:53.325Z,6.80
2022-12-25T04:13:44.771Z,9.70
2022-12-25T04:16:36.203Z,8.20
2022-12-25T04:19:28.690Z,10.50
2022-12-25T04:22:20.141Z,11.80
2022-12-25T04:25:11.580Z,11.40
2022-12-25T04:28:03.213Z,9.30
2022-12-25T04:30:54.456Z,11.60
2022-12-25T04:33:46.026Z,11.50
2022-12-25T04:36:20.406Z,10.90
2022-12-25T04:38:54.337Z,10.20
2022-12-25T04:41:28.630Z,9.80
2022-12-25T04:44:02.834Z,12.00
2022-12-25T04:46:37.242Z,10.20
2022-12-25T04:49:11.169Z,10.40
2022-12-25T04:51:44.955Z,12.60
2022-12-25T04:54:19.273Z,12.90
2022-12-25T04:56:53.811Z,12.80
2022-12-25T04:59:28.029Z,9.70
2022-12-25T05:02:02.052Z,11.10
2022-12-25T05:04:37.334Z,12.60
2022-12-25T05:07:11.526Z,9.10
2022-12-25T05:09:45.547Z,10.20
2022-12-25T05:12:20.122Z,9.20
2022-12-25T05:14:54.055Z,9.70
2022-12-25T05:17:27.974Z,9.90
2022-12-25T05:20:02.006Z,11.10
2022-12-25T05:22:36.086Z,9.50
2022-12-25T05:25:12.622Z,9.70
2022-12-25T05:27:52.109Z,9.80
2022-12-25T05:30:28.547Z,12.50
2022-12-25T05:33:02.520Z,12.20
2022-12-25T05:35:39.170Z,14.10
2022-12-25T05:38:13.475Z,12.20
2022-12-25T05:40:47.583Z,13.60
2022-12-25T05:43:21.815Z,10.60
2022-12-25T05:45:55.766Z,13.50
2022-12-25T05:48:30.438Z,14.40
2022-12-25T05:51:10.146Z,15.80
2022-12-25T05:53:46.055Z,11.40
2022-12-25T05:56:20.471Z,16.00
2022-12-25T05:58:54.469Z,15.20
2022-12-25T06:01:31.647Z,12.50
2022-12-25T06:04:12.141Z,12.30
2022-12-25T06:06:47.259Z,12.30
2022-12-25T06:09:21.406Z,12.20
2022-12-25T06:11:55.519Z,11.50
2022-12-25T06:14:30.034Z,12.50
2022-12-25T06:17:04.365Z,13.00
2022-12-25T06:19:39.153Z,14.60
2022-12-25T06:22:13.477Z,13.80
2022-12-25T06:24:47.591Z,13.30
2022-12-25T06:27:21.905Z,12.20
2022-12-25T06:29:56.231Z,13.60
2022-12-25T06:32:30.340Z,13.50
2022-12-25T06:35:04.258Z,14.40
2022-12-25T06:37:38.792Z,13.80
2022-12-25T06:40:14.958Z,11.10
2022-12-25T06:42:48.628Z,9.90
2022-12-25T06:45:22.496Z,12.20
2022-12-25T06:47:56.876Z,12.00
2022-12-25T06:50:30.698Z,13.50
2022-12-25T06:53:04.798Z,12.50
2022-12-25T06:55:38.813Z,13.90
2022-12-25T06:58:13.123Z,12.10
2022-12-25T07:00:47.774Z,12.30
2022-12-25T07:03:24.369Z,14.60
2022-12-25T07:05:58.967Z,12.70
2022-12-25T07:08:32.980Z,13.40
2022-12-25T07:11:07.289Z,15.30
2022-12-25T07:13:42.825Z,15.20
2022-12-25T07:16:17.500Z,16.00
2022-12-25T07:18:51.930Z,13.60
2022-12-25T07:21:26.140Z,13.70
2022-12-25T07:24:00.294Z,17.10
2022-12-25T07:26:34.345Z,16.20
2022-12-25T07:29:09.066Z,16.70
2022-12-25T07:31:43.436Z,14.30
2022-12-25T07:34:19.437Z,15.80
2022-12-25T07:36:53.273Z,14.50
2022-12-25T07:39:27.290Z,18.90
2022-12-25T07:42:01.575Z,20.10
2022-12-25T07:44:35.560Z,16.90
2022-12-25T07:47:09.915Z,18.70
2022-12-25T07:49:43.611Z,19.60
2022-12-25T07:52:17.580Z,20.70
2022-12-25T07:54:51.651Z,22.80
2022-12-25T07:57:25.372Z,21.40
2022-12-25T07:59:59.607Z,19.40
2022-12-25T08:02:33.845Z,24.40
2022-12-25T08:05:10.884Z,19.60
2022-12-25T08:07:44.685Z,20.70
2022-12-25T08:10:18.816Z,23.20
2022-12-25T08:12:52.915Z,24.60
2022-12-25T08:15:28.631Z,22.30
2022-12-25T08:18:02.402Z,23.30
2022-12-25T08:20:36.809Z,28.40
2022-12-25T08:23:10.742Z,51.20
2022-12-25T08:25:44.540Z,47.90
2022-12-25T08:28:18.636Z,51.20
2022-12-25T08:30:52.384Z,46.60
2022-12-25T08:33:26.414Z,40.80
2022-12-25T08:36:07.966Z,43.50
2022-12-25T08:38:42.399Z,54.70
2022-12-25T08:41:17.724Z,52.90
2022-12-25T08:43:51.852Z,53.50
2022-12-25T08:46:26.134Z,52.70
2022-12-25T08:49:01.071Z,59.20
2022-12-25T08:51:37.345Z,62.10
2022-12-25T08:54:12.078Z,63.90
2022-12-25T08:56:47.766Z,64.10
2022-12-25T08:59:22.032Z,62.60
2022-12-25T09:01:55.858Z,57.50
2022-12-25T09:04:31.271Z,59.40
2022-12-25T09:07:05.155Z,55.70
2022-12-25T09:09:39.307Z,66.40
2022-12-25T09:12:13.624Z,61.30
2022-12-25T09:14:47.500Z,58.70
2022-12-25T09:17:21.649Z,62.50
2022-12-25T09:19:55.372Z,60.50
2022-12-25T09:22:29.868Z,65.70
2022-12-25T09:25:03.849Z,71.60
2022-12-25T09:27:37.576Z,60.10
2022-12-25T09:30:13.641Z,50.50
2022-12-25T09:32:47.427Z,46.80
2022-12-25T09:35:21.937Z,46.10
2022-12-25T09:37:55.912Z,47.40
2022-12-25T09:40:33.467Z,50.00
2022-12-25T09:43:12.327Z,44.20
2022-12-25T09:45:47.591Z,36.50
2022-12-25T09:48:22.209Z,36.20
2022-12-25T09:51:02.689Z,39.30
2022-12-25T09:53:44.849Z,33.90
2022-12-25T09:56:25.881Z,34.60
2022-12-25T09:59:00.408Z,35.20
2022-12-25T10:01:50.303Z,31.70
2022-12-25T10:04:44.207Z,30.80
2022-12-25T10:07:36.270Z,28.90
2022-12-25T10:10:35.256Z,27.80
2022-12-25T10:13:39.577Z,26.60
2022-12-25T10:16:27.388Z,25.60
2022-12-25T10:19:21.028Z,23.10
2022-12-25T10:21:59.730Z,22.90
2022-12-25T10:24:41.960Z,21.40
2022-12-25T10:27:24.769Z,24.60
2022-12-25T10:29:59.918Z,22.30
2022-12-25T10:32:34.285Z,22.30
2022-12-25T10:35:13.468Z,20.80
2022-12-25T10:37:51.294Z,20.20
2022-12-25T10:40:37.944Z,19.60
2022-12-25T10:43:20.943Z,22.40
2022-12-25T10:45:54.804Z,17.90
2022-12-25T10:48:33.775Z,15.70
2022-12-25T10:51:08.664Z,17.30
2022-12-25T10:53:45.407Z,17.10
2022-12-25T10:56:21.878Z,16.60
2022-12-25T10:59:07.329Z,18.40
2022-12-25T11:01:41.566Z,19.50
2022-12-25T11:04:25.871Z,19.30
2022-12-25T11:07:07.929Z,17.20
2022-12-25T11:09:50.003Z,17.80
2022-12-25T11:12:36.495Z,19.20
2022-12-25T11:15:38.011Z,19.80
2022-12-25T11:18:24.430Z,19.30
2022-12-25T11:21:01.203Z,19.20
2022-12-25T11:23:36.053Z,17.70
2022-12-25T11:26:12.412Z,15.10
2022-12-25T11:28:49.672Z,14.10
2022-12-25T11:31:29.156Z,14.10
2022-12-25T11:34:08.254Z,10.70
2022-12-25T11:36:51.686Z,14.00
2022-12-25T11:39:30.930Z,18.00
2022-12-25T11:42:15.342Z,13.60
2022-12-25T11:44:58.250Z,11.50
2022-12-25T11:47:43.081Z,15.90
2022-12-25T11:50:29.971Z,13.70
2022-12-25T11:53:11.145Z,12.70
2022-12-25T11:55:54.849Z,13.60
2022-12-25T11:58:34.544Z,13.50
2022-12-25T12:01:20.187Z,13.60
2022-12-25T12:03:54.241Z,13.20
2022-12-25T12:06:43.944Z,14.10
2022-12-25T12:09:37.957Z,14.50
2022-12-25T12:12:21.827Z,14.40
2022-12-25T12:15:08.293Z,18.10
2022-12-25T12:17:41.949Z,14.60
2022-12-25T12:20:34.630Z,12.40
2022-12-25T12:23:17.645Z,17.10
2022-12-25T12:25:52.158Z,19.10
2022-12-25T12:28:29.509Z,14.70
2022-12-25T12:31:07.976Z,15.00
2022-12-25T12:33:50.060Z,12.50
2022-12-25T12:36:35.694Z,12.40
2022-12-25T12:39:22.011Z,17.00
2022-12-25T12:41:56.360Z,14.00
2022-12-25T12:44:36.332Z,15.50
2022-12-25T12:47:31.345Z,13.10
2022-12-25T12:50:07.073Z,16.00
2022-12-25T12:52:42.757Z,16.50
2022-12-25T12:55:17.008Z,16.40
2022-12-25T12:58:01.395Z,17.00
2022-12-25T13:00:50.057Z,16.20
2022-12-25T13:03:40.741Z,18.20
2022-12-25T13:06:22.174Z,16.80
2022-12-25T13:09:14.311Z,14.20
2022-12-25T13:11:49.015Z,12.00
2022-12-25T13:14:26.143Z,13.90
2022-12-25T13:17:00.577Z,10.80
2022-12-25T13:19:36.054Z,12.90
2022-12-25T13:22:24.379Z,12.60
2022-12-25T13:25:06.444Z,13.30
2022-12-25T13:27:40.351Z,14.80
2022-12-25T13:30:26.094Z,14.80
2022-12-25T13:33:00.230Z,15.20
2022-12-25T13:35:34.338Z,11.10
2022-12-25T13:38:15.972Z,15.30
2022-12-25T13:41:15.271Z,13.40
2022-12-25T13:43:51.089Z,13.90
2022-12-25T13:46:31.274Z,12.40
2022-12-25T13:49:13.568Z,16.20
2022-12-25T13:51:47.526Z,14.00
2022-12-25T13:54:22.179Z,11.90
2022-12-25T13:56:58.323Z,13.90
2022-12-25T13:59:32.033Z,15.70
2022-12-25T14:02:15.582Z,11.90
2022-12-25T14:04:49.701Z,14.40
2022-12-25T14:07:27.251Z,14.10
2022-12-25T14:10:05.899Z,11.80
2022-12-25T14:12:39.935Z,11.80
2022-12-25T14:15:21.666Z,14.60
2022-12-25T14:17:56.166Z,19.60
2022-12-25T14:20:35.004Z,20.20
2022-12-25T14:23:15.994Z,20.00
2022-12-25T14:25:50.929Z,17.10
2022-12-25T14:28:32.437Z,12.30
2022-12-25T14:31:07.370Z,13.20
2022-12-25T14:33:44.257Z,13.70
2022-12-25T14:36:18.813Z,12.90
2022-12-25T14:39:03.435Z,9.40
2022-12-25T14:41:42.160Z,11.70
2022-12-25T14:47:21.934Z,14.30
2022-12-25T14:49:55.882Z,11.90
2022-12-25T14:52:36.212Z,17.00
2022-12-25T14:55:22.004Z,15.00
2022-12-25T14:57:59.430Z,14.30
2022-12-25T15:00:36.527Z,16.20
2022-12-25T15:03:24.349Z,18.00
2022-12-25T15:06:05.348Z,16.80
2022-12-25T15:08:41.249Z,20.10
2022-12-25T15:11:14.886Z,21.90
2022-12-25T15:13:48.608Z,25.10
2022-12-25T15:16:26.097Z,23.60
2022-12-25T15:19:01.800Z,22.20
2022-12-25T15:21:38.864Z,22.60
2022-12-25T15:24:16.192Z,32.30
2022-12-25T15:26:50.144Z,26.70
2022-12-25T15:29:59.690Z,29.40
2022-12-25T15:32:23.392Z,27.80
2022-12-25T15:34:57.169Z,30.00
2022-12-25T15:37:31.227Z,31.20
2022-12-25T15:40:06.741Z,27.20
2022-12-25T15:42:41.004Z,29.70
2022-12-25T15:45:24.236Z,38.50
2022-12-25T15:47:58.653Z,40.20
2022-12-25T15:50:36.814Z,44.70
2022-12-25T15:53:11.312Z,45.70
2022-12-25T15:55:45.944Z,49.00
2022-12-25T15:58:19.980Z,52.70
2022-12-25T16:00:54.940Z,45.30
2022-12-25T16:03:28.849Z,48.50
2022-12-25T16:06:05.723Z,50.90
2022-12-25T16:08:39.814Z,54.30
2022-12-25T16:11:14.489Z,56.60
2022-12-25T16:13:48.477Z,62.50
2022-12-25T16:16:22.827Z,52.70
2022-12-25T16:18:57.224Z,44.10
2022-12-25T16:21:39.136Z,37.40
2022-12-25T16:24:14.188Z,42.20
2022-12-25T16:26:48.663Z,43.40
2022-12-25T16:29:22.485Z,40.40
2022-12-25T16:31:56.456Z,41.80
2022-12-25T16:34:30.717Z,39.50
2022-12-25T16:37:05.093Z,41.20
2022-12-25T16:39:39.296Z,36.60
2022-12-25T16:42:14.054Z,36.10
2022-12-25T16:44:48.486Z,29.50
2022-12-25T16:47:22.570Z,34.20
2022-12-25T16:49:58.653Z,29.00
2022-12-25T16:52:33.092Z,28.90
2022-12-25T16:55:08.757Z,27.00
2022-12-25T16:57:42.761Z,27.20
2022-12-25T17:00:19.747Z,31.40
2022-12-25T17:02:53.992Z,31.60
2022-12-25T17:05:29.109Z,31.40
2022-12-25T17:08:03.614Z,28.80
2022-12-25T17:10:40.884Z,29.40
2022-12-25T17:13:14.978Z,32.60
2022-12-25T17:15:50.766Z,30.40
2022-12-25T17:18:25.070Z,30.90
2022-12-25T17:20:59.041Z,30.50
2022-12-25T17:23:32.922Z,32.90
2022-12-25T17:26:07.349Z,34.00
2022-12-25T17:28:41.587Z,35.40
2022-12-25T17:31:16.709Z,33.50
2022-12-25T17:33:51.046Z,33.80
2022-12-25T17:36:26.081Z,27.30
2022-12-25T17:39:01.977Z,33.70
2022-12-25T17:41:36.277Z,29.10
2022-12-25T17:44:10.149Z,35.70
2022-12-25T17:46:44.520Z,39.10
2022-12-25T17:49:21.873Z,36.40
2022-12-25T17:51:56.565Z,33.10
2022-12-25T17:54:30.534Z,38.50
2022-12-25T17:57:04.430Z,43.20
2022-12-25T17:59:38.544Z,40.40
2022-12-25T18:02:13.658Z,35.30
2022-12-25T18:04:48.275Z,40.70
2022-12-25T18:07:22.017Z,37.30
2022-12-25T18:09:57.284Z,33.90
2022-12-25T18:12:32.599Z,37.10
2022-12-25T18:15:07.783Z,47.70
2022-12-25T18:17:41.617Z,45.30
2022-12-25T18:20:16.271Z,43.20
2022-12-25T18:22:50.130Z,43.80
2022-12-25T18:25:24.016Z,46.60
2022-12-25T18:27:57.798Z,47.90
2022-12-25T18:30:31.749Z,43.80
2022-12-25T18:33:05.610Z,48.30
2022-12-25T18:35:44.463Z,47.60
2022-12-25T18:38:19.033Z,47.30
2022-12-25T18:40:54.309Z,44.70
2022-12-25T18:43:51.433Z,50.50
2022-12-25T18:46:24.599Z,37.60
2022-12-25T18:48:59.532Z,41.20
2022-12-25T18:51:37.105Z,46.30
2022-12-25T18:54:11.475Z,40.30
2022-12-25T18:56:50.675Z,39.20
2022-12-25T18:59:27.076Z,41.50
2022-12-25T19:02:00.870Z,45.50
2022-12-25T19:04:34.897Z,40.40
2022-12-25T19:07:08.823Z,38.00
2022-12-25T19:09:42.812Z,36.90
2022-12-25T19:12:17.908Z,37.70
2022-12-25T19:14:52.082Z,38.80
2022-12-25T19:17:39.694Z,44.10
2022-12-25T19:20:20.828Z,36.60
2022-12-25T19:22:55.466Z,41.90
2022-12-25T19:25:30.402Z,42.60
2022-12-25T19:28:04.510Z,36.80
2022-12-25T19:30:40.401Z,38.40
2022-12-25T19:33:18.051Z,40.20
2022-12-25T19:35:55.499Z,39.60
2022-12-25T19:38:30.568Z,36.80
2022-12-25T19:41:09.068Z,36.60
2022-12-25T19:43:45.722Z,39.20
2022-12-25T19:46:23.456Z,45.30
2022-12-25T19:48:59.171Z,40.70
2022-12-25T19:51:37.665Z,40.40
2022-12-25T19:54:15.245Z,41.20
2022-12-25T19:56:49.625Z,40.10
2022-12-25T19:59:24.895Z,36.10
2022-12-25T20:01:59.157Z,36.00
2022-12-25T20:04:33.445Z,36.10
2022-12-25T20:07:07.576Z,36.70
2022-12-25T20:09:41.992Z,30.10
2022-12-25T20:12:16.401Z,33.70
2022-12-25T20:14:50.842Z,32.60
2022-12-25T20:17:24.841Z,33.10
2022-12-25T20:19:58.740Z,32.40
2022-12-25T20:22:32.925Z,33.10
2022-12-25T20:25:09.811Z,33.50
2022-12-25T20:27:43.645Z,31.10
2022-12-25T20:30:18.679Z,33.80
2022-12-25T20:32:52.621Z,27.30
2022-12-25T20:35:26.470Z,29.60
2022-12-25T20:38:00.511Z,33.50
2022-12-25T20:40:53.044Z,30.40
2022-12-25T20:43:28.692Z,27.80
2022-12-25T20:46:05.678Z,27.30
2022-12-25T20:48:40.353Z,27.40
2022-12-25T20:51:19.194Z,29.40
2022-12-25T20:53:53.878Z,28.60
2022-12-25T20:56:30.378Z,29.30
2022-12-25T20:59:05.201Z,34.40
2022-12-25T21:01:39.428Z,33.80
2022-12-25T21:04:16.528Z,26.50
2022-12-25T21:06:50.831Z,31.40
2022-12-25T21:09:24.911Z,27.50
2022-12-25T21:11:58.815Z,27.10
2022-12-25T21:14:32.704Z,21.70
2022-12-25T21:17:06.903Z,29.70
2022-12-25T21:19:40.973Z,33.00
2022-12-25T21:22:15.367Z,29.00
2022-12-25T21:24:52.236Z,26.50
2022-12-25T21:27:26.956Z,25.00
2022-12-25T21:30:14.906Z,29.70
2022-12-25T21:33:07.892Z,24.30
2022-12-25T21:35:42.600Z,25.70
2022-12-25T21:38:17.487Z,27.90
2022-12-25T21:40:51.846Z,26.30
2022-12-25T21:43:25.774Z,24.70
2022-12-25T21:46:05.558Z,25.70
2022-12-25T21:48:41.575Z,25.30
2022-12-25T21:51:42.406Z,27.70
2022-12-25T21:54:18.268Z,25.00
2022-12-25T21:56:52.940Z,25.90
2022-12-25T21:59:27.607Z,27.30
2022-12-25T22:02:02.000Z,25.00
2022-12-25T22:04:38.088Z,25.30
2022-12-25T22:07:19.848Z,22.20
2022-12-25T22:09:54.904Z,27.10
2022-12-25T22:12:46.691Z,21.60
2022-12-25T22:15:21.008Z,24.50
2022-12-25T22:18:12.657Z,24.90
2022-12-25T22:20:47.011Z,29.90
2022-12-25T22:23:21.658Z,29.90
2022-12-25T22:25:56.050Z,29.90
2022-12-25T22:28:30.728Z,34.40
2022-12-25T22:31:09.097Z,34.20
2022-12-25T22:33:43.375Z,30.70
2022-12-25T22:36:17.596Z,32.90
2022-12-25T22:38:52.528Z,27.00
2022-12-25T22:41:31.510Z,27.70
2022-12-25T22:44:17.791Z,23.90
2022-12-25T22:46:52.292Z,27.00
2022-12-25T22:49:26.757Z,27.70
2022-12-25T22:52:01.108Z,24.70
2022-12-25T22:54:35.997Z,28.00
2022-12-25T22:57:10.053Z,27.10
2022-12-25T22:59:44.543Z,28.00
2022-12-25T23:02:18.876Z,26.80
2022-12-25T23:04:53.656Z,28.00
2022-12-25T23:07:27.635Z,25.20
2022-12-25T23:10:02.377Z,26.90
2022-12-25T23:12:54.173Z,29.00
2022-12-25T23:15:29.273Z,26.30
2022-12-25T23:18:23.980Z,23.90
2022-12-25T23:21:23.424Z,23.80
2022-12-25T23:24:14.965Z,27.10
2022-12-25T23:26:48.783Z,25.10
2022-12-25T23:29:45.703Z,28.00
2022-12-25T23:32:24.971Z,29.10
2022-12-25T23:34:59.390Z,24.50
2022-12-25T23:37:34.475Z,28.60
2022-12-25T23:40:11.745Z,21.80
2022-12-25T23:42:46.962Z,27.60
2022-12-25T23:45:21.288Z,22.60
2022-12-25T23:47:55.494Z,29.00
2022-12-25T23:50:30.485Z,24.90
2022-12-25T23:53:04.161Z,24.70
2022-12-25T23:55:38.842Z,23.80
2022-12-25T23:58:12.765Z,27.20
